createdAt,value
2019-02-07T00:00:45.482Z,39.80
2019-02-07T00:03:14.249Z,37.98
2019-02-07T00:05:42.687Z,38.28
2019-02-07T00:08:11.202Z,35.20
2019-02-07T00:10:40.031Z,42.45
2019-02-07T00:13:08.494Z,39.80
2019-02-07T00:15:37.284Z,38.25
2019-02-07T00:18:06.482Z,38.42
2019-02-07T00:20:34.934Z,37.63
2019-02-07T00:23:03.513Z,39.80
2019-02-07T00:25:32.637Z,36.30
2019-02-07T00:28:01.425Z,39.20
2019-02-07T00:30:30.228Z,37.95
2019-02-07T00:32:58.980Z,40.78
2019-02-07T00:35:27.455Z,36.50
2019-02-07T00:37:55.856Z,41.53
2019-02-07T00:40:24.322Z,40.05
2019-02-07T00:42:52.758Z,36.70
2019-02-07T00:45:21.205Z,37.33
2019-02-07T00:47:49.998Z,39.92
2019-02-07T00:50:18.434Z,38.10
2019-02-07T00:52:48.253Z,42.67
2019-02-07T00:55:16.968Z,37.53
2019-02-07T00:57:45.855Z,36.90
2019-02-07T01:00:17.341Z,37.53
2019-02-07T01:02:46.097Z,37.35
2019-02-07T01:05:15.291Z,36.90
2019-02-07T01:07:43.795Z,34.88
2019-02-07T01:10:13.653Z,33.80
2019-02-07T01:12:42.113Z,34.20
2019-02-07T01:15:11.028Z,38.58
2019-02-07T01:17:39.475Z,35.90
2019-02-07T01:20:09.523Z,40.45
2019-02-07T01:22:38.250Z,35.68
2019-02-07T01:25:07.888Z,36.53
2019-02-07T01:27:36.333Z,35.78
2019-02-07T01:30:06.355Z,33.33
2019-02-07T01:32:34.793Z,37.05
2019-02-07T01:35:03.694Z,34.48
2019-02-07T01:37:32.136Z,38.20
2019-02-07T01:40:00.885Z,36.65
2019-02-07T01:42:31.129Z,38.38
2019-02-07T01:44:59.846Z,35.70
2019-02-07T01:47:28.383Z,38.00
2019-02-07T01:49:56.807Z,33.63
2019-02-07T01:52:25.542Z,36.58
2019-02-07T01:54:54.640Z,37.40
2019-02-07T01:57:23.307Z,35.65
2019-02-07T01:59:53.023Z,36.80
2019-02-07T02:02:21.825Z,35.55
2019-02-07T02:04:50.248Z,35.28
2019-02-07T02:07:18.969Z,32.58
2019-02-07T02:09:47.426Z,36.65
2019-02-07T02:12:15.967Z,34.10
2019-02-07T02:14:44.734Z,33.65
2019-02-07T02:17:13.470Z,36.77
2019-02-07T02:19:41.918Z,32.55
2019-02-07T02:22:10.785Z,33.33
2019-02-07T02:24:39.261Z,36.10
2019-02-07T02:27:07.690Z,35.88
2019-02-07T02:29:36.503Z,36.25
2019-02-07T02:32:05.000Z,36.20
2019-02-07T02:34:33.813Z,33.45
2019-02-07T02:37:02.518Z,33.70
2019-02-07T02:39:30.971Z,36.40
2019-02-07T02:41:59.970Z,36.48
2019-02-07T02:44:28.417Z,35.78
2019-02-07T02:46:56.834Z,37.63
2019-02-07T02:49:25.637Z,38.85
2019-02-07T02:51:54.339Z,33.55
2019-02-07T02:54:34.958Z,35.43
2019-02-07T02:57:03.961Z,34.83
2019-02-07T02:59:33.166Z,37.05
2019-02-07T03:02:13.398Z,37.08
2019-02-07T03:04:56.678Z,40.63
2019-02-07T03:07:43.349Z,40.35
2019-02-07T03:10:24.953Z,37.70
2019-02-07T03:13:09.400Z,40.08
2019-02-07T03:16:09.336Z,38.67
2019-02-07T03:19:04.881Z,36.88
2019-02-07T03:21:53.395Z,39.33
2019-02-07T03:24:50.395Z,40.63
2019-02-07T03:27:40.208Z,38.28
2019-02-07T03:30:28.663Z,41.00
2019-02-07T03:33:25.822Z,37.40
2019-02-07T03:36:16.374Z,39.90
2019-02-07T03:39:02.403Z,40.10
2019-02-07T03:41:56.380Z,42.48
2019-02-07T03:44:35.546Z,43.25
2019-02-07T03:47:13.739Z,46.73
2019-02-07T03:50:16.206Z,39.73
2019-02-07T03:53:00.988Z,42.93
2019-02-07T03:55:59.755Z,30.08
2019-02-07T03:58:47.592Z,48.55
2019-02-07T04:01:37.820Z,45.67
2019-02-07T04:04:24.313Z,41.13
2019-02-07T04:07:12.028Z,41.68
2019-02-07T04:09:58.653Z,43.48
2019-02-07T04:12:45.174Z,44.45
2019-02-07T04:15:44.837Z,39.33
2019-02-07T04:18:24.611Z,38.17
2019-02-07T04:21:17.346Z,43.10
2019-02-07T04:24:00.284Z,40.30
2019-02-07T04:26:46.390Z,38.08
2019-02-07T04:29:21.405Z,40.60
2019-02-07T04:32:17.891Z,42.88
2019-02-07T04:35:11.508Z,40.25
2019-02-07T04:37:55.958Z,41.50
2019-02-07T04:40:46.057Z,40.78
2019-02-07T04:43:35.862Z,41.42
2019-02-07T04:46:27.041Z,42.53
2019-02-07T04:49:00.351Z,41.77
2019-02-07T04:51:40.311Z,45.08
2019-02-07T04:54:27.786Z,40.85
2019-02-07T04:57:15.271Z,41.33
2019-02-07T05:00:01.600Z,43.17
2019-02-07T05:02:40.791Z,39.45
2019-02-07T05:05:34.766Z,41.65
2019-02-07T05:08:11.521Z,40.65
2019-02-07T05:10:52.409Z,39.85
2019-02-07T05:13:32.446Z,41.08
2019-02-07T05:16:19.745Z,42.00
2019-02-07T05:19:08.732Z,46.00
2019-02-07T05:21:54.803Z,42.48
2019-02-07T05:24:42.273Z,43.30
2019-02-07T05:27:44.843Z,43.73
2019-02-07T05:33:10.662Z,41.28
2019-02-07T05:35:54.998Z,37.58
2019-02-07T05:38:54.785Z,43.55
2019-02-07T05:41:41.558Z,40.90
2019-02-07T05:44:16.827Z,34.60
2019-02-07T05:47:11.775Z,41.80
2019-02-07T05:49:48.758Z,46.10
2019-02-07T05:52:35.245Z,40.48
2019-02-07T05:55:17.858Z,43.90
2019-02-07T05:58:14.462Z,45.92
2019-02-07T06:00:56.333Z,42.83
2019-02-07T06:03:41.174Z,41.88
2019-02-07T06:06:34.526Z,40.98
2019-02-07T06:09:24.533Z,45.52
2019-02-07T06:12:07.107Z,44.40
2019-02-07T06:14:53.419Z,76.40
2019-02-07T06:17:41.178Z,44.33
2019-02-07T06:20:21.634Z,45.25
2019-02-07T06:23:18.027Z,42.23
2019-02-07T06:26:26.180Z,39.05
2019-02-07T06:29:29.005Z,43.98
2019-02-07T06:32:11.286Z,37.20
2019-02-07T06:37:48.393Z,41.95
2019-02-07T06:40:34.932Z,55.48
2019-02-07T06:43:21.429Z,42.98
2019-02-07T06:46:07.780Z,43.70
2019-02-07T06:48:54.229Z,40.43
2019-02-07T06:51:54.850Z,36.42
2019-02-07T06:54:46.251Z,41.05
2019-02-07T06:57:48.712Z,42.50
2019-02-07T07:03:22.769Z,49.33
2019-02-07T07:06:28.464Z,49.88
2019-02-07T07:09:17.965Z,53.87
2019-02-07T07:12:01.410Z,76.97
2019-02-07T07:14:44.639Z,47.70
2019-02-07T07:17:35.513Z,46.53
2019-02-07T07:20:22.115Z,45.08
2019-02-07T07:23:07.630Z,45.30
2019-02-07T07:25:48.775Z,38.73
2019-02-07T07:28:36.503Z,41.35
2019-02-07T07:31:14.239Z,44.65
2019-02-07T07:34:00.618Z,66.07
2019-02-07T07:36:47.209Z,61.10
2019-02-07T07:39:52.889Z,49.67
2019-02-07T07:42:43.661Z,44.88
2019-02-07T07:45:24.070Z,45.28
2019-02-07T07:48:11.177Z,44.73
2019-02-07T07:50:57.743Z,57.08
2019-02-07T07:53:43.258Z,50.20
2019-02-07T07:56:29.939Z,44.25
2019-02-07T07:59:15.958Z,44.20
2019-02-07T08:02:03.558Z,45.58
2019-02-07T08:04:49.939Z,47.13
2019-02-07T08:07:37.417Z,46.75
2019-02-07T08:10:32.454Z,89.47
2019-02-07T08:13:14.312Z,50.92
2019-02-07T08:16:07.803Z,45.90
2019-02-07T08:19:07.565Z,50.17
2019-02-07T08:21:44.263Z,50.03
2019-02-07T08:24:30.122Z,47.30
2019-02-07T08:27:24.914Z,52.88
2019-02-07T08:30:11.490Z,51.37
2019-02-07T08:33:10.998Z,46.15
2019-02-07T08:35:57.504Z,55.83
2019-02-07T08:38:37.843Z,46.33
2019-02-07T08:41:28.493Z,50.75
2019-02-07T08:44:14.791Z,74.10
2019-02-07T08:47:02.552Z,54.10
2019-02-07T08:49:47.182Z,42.10
2019-02-07T08:52:33.212Z,43.30
2019-02-07T08:55:16.193Z,44.80
2019-02-07T08:58:01.203Z,110.15
2019-02-07T09:00:56.201Z,43.80
2019-02-07T09:03:46.086Z,43.95
2019-02-07T09:06:48.599Z,62.90
2019-02-07T09:12:15.421Z,60.85
2019-02-07T09:14:52.814Z,63.75
2019-02-07T09:17:49.207Z,59.63
2019-02-07T09:20:35.266Z,66.95
2019-02-07T09:23:10.979Z,61.33
2019-02-07T09:26:10.885Z,70.35
2019-02-07T09:28:56.176Z,69.45
2019-02-07T09:31:36.644Z,72.40
2019-02-07T09:34:13.713Z,61.05
2019-02-07T09:36:59.747Z,67.35
2019-02-07T09:39:40.971Z,64.67
2019-02-07T09:42:40.591Z,73.25
2019-02-07T09:45:24.966Z,74.67
2019-02-07T09:48:21.164Z,70.57
2019-02-07T09:50:50.710Z,82.15
2019-02-07T09:53:28.489Z,68.78
2019-02-07T09:56:06.818Z,71.57
2019-02-07T09:58:54.610Z,84.50
2019-02-07T10:01:32.462Z,79.17
2019-02-07T10:04:20.772Z,86.08
2019-02-07T10:07:09.768Z,76.80
2019-02-07T10:09:52.904Z,75.97
2019-02-07T10:12:39.553Z,77.15
2019-02-07T10:15:18.797Z,72.60
2019-02-07T10:18:11.354Z,77.72
2019-02-07T10:21:02.959Z,81.57
2019-02-07T10:23:49.686Z,72.27
2019-02-07T10:26:40.355Z,65.57
2019-02-07T10:29:34.343Z,71.82
2019-02-07T10:32:24.839Z,63.80
2019-02-07T10:35:03.250Z,70.57
2019-02-07T10:37:48.157Z,78.17
2019-02-07T10:40:27.371Z,105.60
2019-02-07T10:43:13.538Z,74.30
2019-02-07T10:45:56.912Z,82.27
2019-02-07T10:48:50.241Z,67.70
2019-02-07T10:51:42.165Z,74.35
2019-02-07T10:54:19.143Z,80.62
2019-02-07T10:57:15.805Z,57.27
2019-02-07T11:00:00.346Z,73.90
2019-02-07T11:02:59.899Z,66.53
2019-02-07T11:05:46.261Z,60.67
2019-02-07T11:08:41.094Z,59.67
2019-02-07T11:11:17.951Z,60.55
2019-02-07T11:14:08.536Z,61.92
2019-02-07T11:16:53.686Z,56.08
2019-02-07T11:19:56.693Z,55.67
2019-02-07T11:22:47.495Z,61.63
2019-02-07T11:25:47.513Z,53.13
2019-02-07T11:28:26.642Z,52.23
2019-02-07T11:31:17.140Z,49.63
2019-02-07T11:34:02.931Z,49.03
2019-02-07T11:36:59.506Z,46.58
2019-02-07T11:39:55.844Z,47.08
2019-02-07T11:42:49.259Z,48.75
2019-02-07T11:45:28.422Z,44.18
2019-02-07T11:48:16.088Z,44.67
2019-02-07T11:51:04.314Z,44.50
2019-02-07T11:53:51.898Z,42.62
2019-02-07T11:56:33.512Z,39.58
2019-02-07T11:59:24.059Z,41.02
2019-02-07T12:02:20.644Z,41.95
2019-02-07T12:05:06.994Z,38.42
2019-02-07T12:07:52.810Z,39.98
2019-02-07T12:10:47.770Z,37.80
2019-02-07T12:13:53.674Z,37.15
2019-02-07T12:16:43.252Z,36.38
2019-02-07T12:19:26.738Z,31.93
2019-02-07T12:22:14.228Z,33.10
2019-02-07T12:24:56.407Z,30.65
2019-02-07T12:27:43.209Z,30.27
2019-02-07T12:30:45.392Z,31.30
2019-02-07T12:33:33.485Z,29.63
2019-02-07T12:36:27.026Z,30.85
2019-02-07T12:39:15.651Z,27.37
2019-02-07T12:42:10.887Z,27.75
2019-02-07T12:45:09.695Z,28.25
2019-02-07T12:47:47.159Z,27.62
2019-02-07T12:50:45.755Z,24.67
2019-02-07T12:53:48.827Z,25.40
2019-02-07T12:56:35.635Z,22.90
2019-02-07T12:59:16.096Z,23.30
2019-02-07T13:01:57.945Z,22.13
2019-02-07T13:04:44.170Z,22.98
2019-02-07T13:07:37.711Z,23.40
2019-02-07T13:10:45.075Z,25.02
2019-02-07T13:13:27.962Z,26.65
2019-02-07T13:16:21.777Z,23.57
2019-02-07T13:19:15.277Z,26.85
2019-02-07T13:21:57.406Z,30.68
2019-02-07T13:24:46.611Z,26.07
2019-02-07T13:27:24.286Z,30.95
2019-02-07T13:30:10.882Z,24.65
2019-02-07T13:32:57.503Z,27.55
2019-02-07T13:35:45.374Z,28.12
2019-02-07T13:38:27.033Z,26.10
2019-02-07T13:41:13.610Z,29.90
2019-02-07T13:44:07.179Z,25.48
2019-02-07T13:46:53.142Z,24.92
2019-02-07T13:49:31.091Z,25.37
2019-02-07T13:52:17.219Z,21.45
2019-02-07T13:54:57.297Z,23.90
2019-02-07T13:57:43.637Z,27.40
2019-02-07T14:00:32.382Z,25.23
2019-02-07T14:03:23.286Z,25.70
2019-02-07T14:06:09.587Z,29.00
2019-02-07T14:08:56.003Z,30.35
2019-02-07T14:11:43.409Z,28.73
2019-02-07T14:14:27.206Z,26.48
2019-02-07T14:17:08.627Z,31.07
2019-02-07T14:20:06.225Z,30.60
2019-02-07T14:22:59.603Z,27.27
2019-02-07T14:25:50.564Z,39.55
2019-02-07T14:28:53.350Z,30.65
2019-02-07T14:31:53.392Z,32.23
2019-02-07T14:34:43.873Z,31.25
2019-02-07T14:37:47.478Z,33.20
2019-02-07T14:40:29.603Z,31.52
2019-02-07T14:43:20.350Z,35.83
2019-02-07T14:45:58.982Z,35.25
2019-02-07T14:48:27.948Z,30.90
2019-02-07T14:50:56.615Z,32.80
2019-02-07T14:53:25.776Z,35.10
2019-02-07T14:55:56.708Z,33.40
2019-02-07T14:58:25.129Z,43.60
2019-02-07T15:00:53.601Z,40.75
2019-02-07T15:03:22.372Z,47.67
2019-02-07T15:05:50.794Z,43.50
2019-02-07T15:08:19.245Z,42.48
2019-02-07T15:10:48.008Z,36.95
2019-02-07T15:13:16.785Z,36.63
2019-02-07T15:15:45.221Z,41.60
2019-02-07T15:18:14.118Z,37.78
2019-02-07T15:20:42.824Z,54.63
2019-02-07T15:23:12.208Z,39.27
2019-02-07T15:25:41.016Z,43.60
2019-02-07T15:28:09.478Z,43.83
2019-02-07T15:30:37.971Z,42.23
2019-02-07T15:33:06.410Z,44.63
2019-02-07T15:35:37.782Z,39.13
2019-02-07T15:38:07.943Z,41.58
2019-02-07T15:40:36.631Z,41.50
2019-02-07T15:43:05.127Z,46.23
2019-02-07T15:45:33.557Z,41.20
2019-02-07T15:48:02.007Z,44.98
2019-02-07T15:50:37.536Z,39.30
2019-02-07T15:53:02.830Z,46.70
2019-02-07T15:55:31.270Z,37.85
2019-02-07T15:57:59.730Z,38.78
2019-02-07T16:00:53.960Z,43.13
2019-02-07T16:03:32.076Z,36.98
2019-02-07T16:06:00.580Z,44.10
2019-02-07T16:08:29.046Z,39.78
2019-02-07T16:10:57.522Z,41.35
2019-02-07T16:13:27.907Z,40.83
2019-02-07T16:15:56.625Z,40.90
2019-02-07T16:18:25.103Z,45.80
2019-02-07T16:20:53.557Z,37.80
2019-02-07T16:23:22.002Z,36.55
2019-02-07T16:25:50.675Z,34.75
2019-02-07T16:28:20.389Z,35.90
2019-02-07T16:30:49.586Z,39.83
2019-02-07T16:33:18.299Z,36.70
2019-02-07T16:35:46.735Z,35.00
2019-02-07T16:38:15.204Z,35.75
2019-02-07T16:40:43.783Z,40.00
2019-02-07T16:43:12.226Z,31.95
2019-02-07T16:45:41.034Z,32.88
2019-02-07T16:48:09.846Z,39.08
2019-02-07T16:50:38.288Z,39.40
2019-02-07T16:53:06.890Z,34.63
2019-02-07T16:55:35.810Z,41.30
2019-02-07T16:58:04.597Z,38.63
2019-02-07T17:00:33.702Z,40.28
2019-02-07T17:03:02.143Z,35.25
2019-02-07T17:05:30.634Z,34.35
2019-02-07T17:08:00.258Z,39.33
2019-02-07T17:10:30.661Z,38.58
2019-02-07T17:12:59.148Z,35.75
2019-02-07T17:15:27.949Z,37.03
2019-02-07T17:17:56.942Z,36.93
2019-02-07T17:20:27.288Z,38.38
2019-02-07T17:22:55.870Z,39.10
2019-02-07T17:25:24.304Z,36.70
2019-02-07T17:27:52.779Z,46.08
2019-02-07T17:30:21.803Z,43.92
2019-02-07T17:32:50.637Z,39.75
2019-02-07T17:35:19.385Z,39.73
2019-02-07T17:37:48.380Z,39.13
2019-02-07T17:40:18.076Z,39.83
2019-02-07T17:42:46.833Z,39.10
2019-02-07T17:45:17.911Z,36.83
2019-02-07T17:47:47.101Z,40.78
2019-02-07T17:50:19.012Z,40.75
2019-02-07T17:52:50.213Z,35.90
2019-02-07T17:55:18.234Z,37.23
2019-02-07T17:57:46.670Z,36.10
2019-02-07T18:00:32.764Z,38.20
2019-02-07T18:03:01.209Z,32.63
2019-02-07T18:05:29.958Z,38.15
2019-02-07T18:07:58.403Z,38.15
2019-02-07T18:10:28.683Z,36.48
2019-02-07T18:12:57.449Z,34.38
2019-02-07T18:15:26.508Z,39.08
2019-02-07T18:17:54.955Z,45.33
2019-02-07T18:20:23.780Z,38.08
2019-02-07T18:22:52.486Z,43.02
2019-02-07T18:25:20.938Z,44.25
2019-02-07T18:27:49.360Z,46.70
2019-02-07T18:30:18.654Z,44.45
2019-02-07T18:32:47.820Z,37.83
2019-02-07T18:35:16.357Z,42.73
2019-02-07T18:37:44.790Z,42.40
2019-02-07T18:40:16.542Z,37.53
2019-02-07T18:42:45.329Z,39.60
2019-02-07T18:45:14.054Z,41.77
2019-02-07T18:47:42.495Z,36.05
2019-02-07T18:50:15.129Z,39.80
2019-02-07T18:52:43.862Z,37.20
2019-02-07T18:55:12.319Z,37.25
2019-02-07T18:57:40.754Z,40.70
2019-02-07T19:00:12.580Z,36.33
2019-02-07T19:02:43.887Z,41.55
2019-02-07T19:05:12.756Z,27.98
2019-02-07T19:07:41.201Z,36.75
2019-02-07T19:10:10.918Z,39.15
2019-02-07T19:12:39.371Z,42.30
2019-02-07T19:15:11.888Z,37.35
2019-02-07T19:17:40.340Z,37.53
2019-02-07T19:20:12.508Z,39.25
2019-02-07T19:22:41.279Z,37.83
2019-02-07T19:25:09.745Z,34.15
2019-02-07T19:27:38.175Z,33.55
2019-02-07T19:30:10.648Z,34.40
2019-02-07T19:32:39.404Z,38.55
2019-02-07T19:35:08.826Z,33.38
2019-02-07T19:37:37.609Z,35.73
2019-02-07T19:40:07.455Z,35.52
2019-02-07T19:42:36.209Z,35.45
2019-02-07T19:45:05.949Z,45.45
2019-02-07T19:47:34.651Z,29.25
2019-02-07T19:50:03.121Z,35.13
2019-02-07T19:52:31.868Z,30.97
2019-02-07T19:55:00.800Z,30.12
2019-02-07T19:57:29.587Z,36.83
2019-02-07T19:59:58.001Z,33.13
2019-02-07T20:02:26.451Z,31.93
2019-02-07T20:04:55.217Z,59.95
2019-02-07T20:07:23.667Z,31.23
2019-02-07T20:09:52.347Z,30.80
2019-02-07T20:12:21.536Z,35.15
2019-02-07T20:14:50.001Z,45.45
2019-02-07T20:17:18.726Z,40.40
2019-02-07T20:22:35.139Z,22.98
2019-02-07T20:25:03.931Z,20.08
2019-02-07T20:27:32.655Z,37.10
2019-02-07T20:30:01.087Z,51.28
2019-02-07T20:32:29.927Z,44.10
2019-02-07T20:34:58.682Z,37.65
2019-02-07T20:37:27.404Z,28.60
2019-02-07T20:39:56.169Z,22.65
2019-02-07T20:42:25.271Z,39.03
2019-02-07T20:44:54.061Z,15.63
2019-02-07T20:47:22.530Z,52.62
2019-02-07T20:49:53.967Z,88.95
2019-02-07T20:52:27.305Z,35.30
2019-02-07T20:54:54.291Z,73.15
2019-02-07T20:57:22.752Z,58.40
2019-02-07T20:59:51.800Z,85.42
2019-02-07T21:02:20.274Z,106.10
2019-02-07T21:04:48.717Z,156.75
2019-02-07T21:07:17.452Z,192.87
2019-02-07T21:09:46.542Z,94.52
2019-02-07T21:12:15.335Z,63.48
2019-02-07T21:14:44.128Z,30.10
2019-02-07T21:17:12.578Z,32.73
2019-02-07T21:19:41.012Z,61.02
2019-02-07T21:22:09.491Z,42.75
2019-02-07T21:24:38.435Z,33.48
2019-02-07T21:27:06.999Z,23.07
2019-02-07T21:29:35.422Z,83.72
2019-02-07T21:32:04.046Z,70.40
2019-02-07T21:34:32.873Z,26.82
2019-02-07T21:37:01.286Z,61.50
2019-02-07T21:39:30.098Z,57.38
2019-02-07T21:41:58.534Z,54.48
2019-02-07T21:44:27.527Z,29.85
2019-02-07T21:46:56.623Z,65.75
2019-02-07T21:49:25.373Z,12.73
2019-02-07T21:51:53.777Z,14.55
2019-02-07T21:54:22.218Z,28.62
2019-02-07T21:56:50.963Z,49.45
2019-02-07T21:59:19.636Z,35.92
2019-02-07T22:01:48.443Z,38.30
2019-02-07T22:04:17.222Z,39.45
2019-02-07T22:06:45.950Z,50.88
2019-02-07T22:09:14.690Z,20.88
2019-02-07T22:11:43.125Z,11.50
2019-02-07T22:14:11.855Z,21.65
2019-02-07T22:16:40.953Z,14.50
2019-02-07T22:19:09.737Z,35.70
2019-02-07T22:21:38.529Z,21.45
2019-02-07T22:24:06.964Z,13.28
2019-02-07T22:26:35.710Z,23.83
2019-02-07T22:29:04.162Z,16.45
2019-02-07T22:31:32.962Z,37.33
2019-02-07T22:34:01.645Z,28.38
2019-02-07T22:36:30.444Z,55.65
2019-02-07T22:38:58.886Z,79.50
2019-02-07T22:41:27.620Z,39.13
2019-02-07T22:43:56.598Z,45.43
2019-02-07T22:46:27.201Z,17.20
2019-02-07T22:48:55.742Z,11.05
2019-02-07T22:51:24.166Z,39.23
2019-02-07T22:53:52.614Z,20.30
2019-02-07T22:56:21.658Z,21.05
2019-02-07T22:58:50.453Z,12.82
2019-02-07T23:01:34.802Z,26.35
2019-02-07T23:04:06.798Z,11.53
2019-02-07T23:06:35.557Z,14.07
2019-02-07T23:09:06.043Z,26.30
2019-02-07T23:11:34.464Z,14.55
2019-02-07T23:14:05.009Z,19.62
2019-02-07T23:16:33.462Z,25.23
2019-02-07T23:19:01.901Z,24.45
2019-02-07T23:21:30.342Z,14.78
2019-02-07T23:23:58.769Z,19.82
2019-02-07T23:26:27.439Z,19.05
2019-02-07T23:28:55.887Z,12.03
2019-02-07T23:31:24.616Z,20.95
2019-02-07T23:33:53.158Z,66.80
2019-02-07T23:36:22.249Z,13.08
2019-02-07T23:38:50.667Z,12.68
2019-02-07T23:41:19.393Z,14.50
2019-02-07T23:43:48.493Z,12.35
2019-02-07T23:46:17.224Z,23.42
2019-02-07T23:48:46.175Z,18.67
2019-02-07T23:51:14.614Z,14.80
2019-02-07T23:53:43.551Z,10.40
2019-02-07T23:56:11.984Z,10.23
2019-02-07T23:58:40.421Z,12.80
